Aérodrome :
LOGIN :

S'inscrire | Disclaimer

   EN    FR    IT 

 










Légende :    VFR   VFR Marginal   IFR   IFR Intensif   IFR Très Intensif
Visi : 
Plafond : 
>= 8 km
>= 3000ft
5 à 8 km
1000 à 3000 ft
1500m à 5 km
500 à 1000 ft
800 à 1500m
200 à 500 ft
< 800m
< 200 ft
Symboles :   Orages  Brouillard  Fortes neiges  Fortes précipitations  Vent > 20 kt
SIGMETs :   Divers  Orages  Givrage  Turbulence  Onde Orograph.  Cendres Volcan.







- Altitude de l'aérodrome : 157 ft
- Code IATA : SXF


EDDB - Berlin Schönefeld

DERNIER METAR :
  • 172320Z 25014KT 9999 -SHSNRA BKN016CB 02/00 Q1003 NOSIG

METARs EXPIRÉS :
  • 172250Z 25015KT 9999 BKN021 BKN042 02/00 Q1003 NOSIG
  • 172220Z 26015KT 9999 FEW012 BKN039 02/01 Q1002 NOSIG
  • 172150Z 27014KT 9999 BKN011 02/01 Q1002 BECMG BKN015
  • 172120Z 26012KT 9999 -RA SCT008 BKN034 03/01 Q1002 NOSIG
  • 172050Z 25013KT 9999 -RA BKN008 02/02 Q1001 BECMG BKN012

TAF TAF EDDB
Valide du 18 à 00h jusqu'au 19 à 00h UTC


172300Z 1800/1824 28010G20KT 9000 SCT008 BKN015
TEMPO 1800/1804 29015G25KT 1400 SHSN BKN004 BKN008CB
PROB30
TEMPO 1804/1809 4500 -SN BKN008
TEMPO 1809/1812 BKN013
Pas de NOTAMs connus pour ce terrain.



MET'MAP, la Météo Aéronautique d'un coup d'oeil ! - Copyright ORBIFLY Décembre 2007 - Disclaimer

ORBIFLY MET'MAP TEAM :

Programmation & Développement : Alexandra Zaïnal
Conception & Développement : Baudouin d'Aumeries
Co-Programmation & Développement : Marc-Olivier Méhu
Soutien technique & logistique : Manuel Goepfert

Contact : metmap@orbifly.com




SOURCES & CREDITS :

   NOAA